sensor_id;sensor_type;location;lat;lon;timestamp;pressure;altitude;pressure_sealevel;temperature;humidity
79203;BME280;68630;42.748;23.278;2023-09-08T00:01:24;96014.05;;;19.57;63.42
79203;BME280;68630;42.748;23.278;2023-09-08T00:03:52;96019.13;;;19.52;63.73
79203;BME280;68630;42.748;23.278;2023-09-08T00:06:19;96023.36;;;19.54;63.89
79203;BME280;68630;42.748;23.278;2023-09-08T00:08:47;96018.64;;;19.48;64.19
79203;BME280;68630;42.748;23.278;2023-09-08T00:11:14;96026.27;;;19.40;64.65
79203;BME280;68630;42.748;23.278;2023-09-08T00:13:42;96020.02;;;19.44;64.64
79203;BME280;68630;42.748;23.278;2023-09-08T00:16:09;96017.83;;;19.43;64.69
79203;BME280;68630;42.748;23.278;2023-09-08T00:18:36;96017.46;;;19.46;64.57
79203;BME280;68630;42.748;23.278;2023-09-08T00:21:04;96022.55;;;19.45;64.53
79203;BME280;68630;42.748;23.278;2023-09-08T00:23:31;96022.23;;;19.32;65.00
79203;BME280;68630;42.748;23.278;2023-09-08T00:25:59;96013.63;;;19.33;65.06
79203;BME280;68630;42.748;23.278;2023-09-08T00:28:26;96014.82;;;19.26;65.27
79203;BME280;68630;42.748;23.278;2023-09-08T00:30:54;96008.42;;;19.27;65.05
79203;BME280;68630;42.748;23.278;2023-09-08T00:33:21;96009.42;;;19.26;65.00
79203;BME280;68630;42.748;23.278;2023-09-08T00:35:49;96011.98;;;19.23;65.02
79203;BME280;68630;42.748;23.278;2023-09-08T00:38:17;96007.77;;;19.17;65.16
79203;BME280;68630;42.748;23.278;2023-09-08T00:40:56;96014.53;;;19.08;65.29
79203;BME280;68630;42.748;23.278;2023-09-08T00:43:23;96007.64;;;19.06;65.24
79203;BME280;68630;42.748;23.278;2023-09-08T00:45:51;96003.27;;;19.01;65.33
79203;BME280;68630;42.748;23.278;2023-09-08T00:48:19;96000.38;;;18.98;65.16
79203;BME280;68630;42.748;23.278;2023-09-08T00:50:46;96014.08;;;18.88;65.42
79203;BME280;68630;42.748;23.278;2023-09-08T00:53:14;96001.41;;;18.93;65.04
79203;BME280;68630;42.748;23.278;2023-09-08T00:55:42;96009.34;;;18.90;64.91
79203;BME280;68630;42.748;23.278;2023-09-08T00:58:11;96001.09;;;18.92;64.56
79203;BME280;68630;42.748;23.278;2023-09-08T01:00:39;96007.31;;;18.93;64.33
79203;BME280;68630;42.748;23.278;2023-09-08T01:03:07;96005.63;;;18.87;64.24
79203;BME280;68630;42.748;23.278;2023-09-08T01:05:35;96003.25;;;18.80;64.29
79203;BME280;68630;42.748;23.278;2023-09-08T01:08:03;95999.03;;;18.78;64.20
79203;BME280;68630;42.748;23.278;2023-09-08T01:10:31;95998.21;;;18.73;64.17
79203;BME280;68630;42.748;23.278;2023-09-08T01:12:58;96005.77;;;18.69;64.28
79203;BME280;68630;42.748;23.278;2023-09-08T01:15:26;95996.53;;;18.68;64.18
79203;BME280;68630;42.748;23.278;2023-09-08T01:17:54;96002.23;;;18.69;64.21
79203;BME280;68630;42.748;23.278;2023-09-08T01:20:24;95999.73;;;18.71;63.95
79203;BME280;68630;42.748;23.278;2023-09-08T01:28:25;95994.31;;;18.67;63.73
79203;BME280;68630;42.748;23.278;2023-09-08T01:30:54;95994.67;;;18.68;63.54
79203;BME280;68630;42.748;23.278;2023-09-08T01:33:23;95995.66;;;18.67;63.47
79203;BME280;68630;42.748;23.278;2023-09-08T01:35:51;95994.66;;;18.60;63.74
79203;BME280;68630;42.748;23.278;2023-09-08T01:38:21;95993.81;;;18.64;63.51
79203;BME280;68630;42.748;23.278;2023-09-08T01:40:49;95989.11;;;18.62;63.53
79203;BME280;68630;42.748;23.278;2023-09-08T01:43:17;95998.89;;;18.63;63.38
79203;BME280;68630;42.748;23.278;2023-09-08T01:45:44;95990.79;;;18.67;63.02
79203;BME280;68630;42.748;23.278;2023-09-08T01:48:12;95990.61;;;18.72;62.96
79203;BME280;68630;42.748;23.278;2023-09-08T01:50:38;95988.44;;;18.68;63.21
79203;BME280;68630;42.748;23.278;2023-09-08T01:53:06;95994.66;;;18.52;63.80
79203;BME280;68630;42.748;23.278;2023-09-08T01:55:33;95990.13;;;18.32;64.52
79203;BME280;68630;42.748;23.278;2023-09-08T01:58:01;95988.25;;;18.08;65.47
79203;BME280;68630;42.748;23.278;2023-09-08T02:00:28;95988.03;;;17.97;66.08
79203;BME280;68630;42.748;23.278;2023-09-08T02:02:56;95984.00;;;17.97;66.35
79203;BME280;68630;42.748;23.278;2023-09-08T02:05:24;95981.63;;;17.90;66.76
79203;BME280;68630;42.748;23.278;2023-09-08T02:07:53;95982.24;;;17.84;67.03
79203;BME280;68630;42.748;23.278;2023-09-08T02:10:22;95980.73;;;17.77;67.40
79203;BME280;68630;42.748;23.278;2023-09-08T02:12:49;95974.66;;;17.75;67.49
79203;BME280;68630;42.748;23.278;2023-09-08T02:15:17;95977.50;;;17.65;67.68
79203;BME280;68630;42.748;23.278;2023-09-08T02:17:44;95973.44;;;17.61;67.83
79203;BME280;68630;42.748;23.278;2023-09-08T02:20:12;95984.72;;;17.65;67.74
79203;BME280;68630;42.748;23.278;2023-09-08T02:22:40;95984.39;;;17.68;67.68
79203;BME280;68630;42.748;23.278;2023-09-08T02:25:08;95983.37;;;17.65;67.80
79203;BME280;68630;42.748;23.278;2023-09-08T02:27:35;95979.33;;;17.65;67.71
79203;BME280;68630;42.748;23.278;2023-09-08T02:30:03;95968.75;;;17.67;67.42
79203;BME280;68630;42.748;23.278;2023-09-08T02:32:31;95970.27;;;17.66;67.36
79203;BME280;68630;42.748;23.278;2023-09-08T02:34:59;95978.81;;;17.61;67.47
79203;BME280;68630;42.748;23.278;2023-09-08T02:37:26;95977.11;;;17.52;67.20
79203;BME280;68630;42.748;23.278;2023-09-08T02:39:54;95976.28;;;17.55;65.96
79203;BME280;68630;42.748;23.278;2023-09-08T02:42:22;95974.74;;;17.53;65.47
79203;BME280;68630;42.748;23.278;2023-09-08T02:44:49;95972.52;;;17.40;66.37
79203;BME280;68630;42.748;23.278;2023-09-08T02:47:17;95974.03;;;17.38;65.83
79203;BME280;68630;42.748;23.278;2023-09-08T02:49:45;95973.86;;;17.36;65.96
79203;BME280;68630;42.748;23.278;2023-09-08T02:52:12;95964.72;;;17.20;66.29
79203;BME280;68630;42.748;23.278;2023-09-08T02:54:40;95962.14;;;17.15;66.27
79203;BME280;68630;42.748;23.278;2023-09-08T02:57:07;95955.22;;;17.08;66.39
79203;BME280;68630;42.748;23.278;2023-09-08T02:59:35;95957.91;;;17.08;66.59
79203;BME280;68630;42.748;23.278;2023-09-08T03:02:02;95948.33;;;17.06;66.34
79203;BME280;68630;42.748;23.278;2023-09-08T03:04:30;95951.84;;;17.06;66.20
79203;BME280;68630;42.748;23.278;2023-09-08T03:06:57;95950.49;;;17.02;66.46
79203;BME280;68630;42.748;23.278;2023-09-08T03:09:25;95953.05;;;17.12;66.01
79203;BME280;68630;42.748;23.278;2023-09-08T03:11:52;95959.45;;;17.15;65.53
79203;BME280;68630;42.748;23.278;2023-09-08T03:14:19;95959.09;;;17.10;65.71
79203;BME280;68630;42.748;23.278;2023-09-08T03:16:47;95959.86;;;16.94;65.91
79203;BME280;68630;42.748;23.278;2023-09-08T03:19:14;95957.31;;;16.88;66.07
79203;BME280;68630;42.748;23.278;2023-09-08T03:21:42;95954.47;;;16.90;65.70
79203;BME280;68630;42.748;23.278;2023-09-08T03:24:09;95958.05;;;16.80;65.84
79203;BME280;68630;42.748;23.278;2023-09-08T03:26:37;95956.05;;;16.56;67.01
79203;BME280;68630;42.748;23.278;2023-09-08T03:29:07;95953.43;;;16.64;66.25
79203;BME280;68630;42.748;23.278;2023-09-08T03:31:34;95955.96;;;16.66;65.81
79203;BME280;68630;42.748;23.278;2023-09-08T03:34:02;95952.91;;;16.61;65.49
79203;BME280;68630;42.748;23.278;2023-09-08T03:36:29;95947.31;;;16.54;66.02
79203;BME280;68630;42.748;23.278;2023-09-08T03:38:57;95947.11;;;16.52;65.47
79203;BME280;68630;42.748;23.278;2023-09-08T03:41:29;95942.17;;;16.43;65.33
79203;BME280;68630;42.748;23.278;2023-09-08T03:43:54;95950.73;;;16.38;65.80
79203;BME280;68630;42.748;23.278;2023-09-08T03:46:21;95950.45;;;16.27;66.13
79203;BME280;68630;42.748;23.278;2023-09-08T03:48:50;95955.50;;;16.26;65.76
79203;BME280;68630;42.748;23.278;2023-09-08T03:51:20;95952.45;;;16.25;66.22
79203;BME280;68630;42.748;23.278;2023-09-08T03:53:47;95955.88;;;16.32;66.34
79203;BME280;68630;42.748;23.278;2023-09-08T03:56:15;95952.28;;;16.23;66.48
79203;BME280;68630;42.748;23.278;2023-09-08T03:58:42;95956.03;;;16.12;66.62
79203;BME280;68630;42.748;23.278;2023-09-08T04:01:09;95959.63;;;16.21;66.37
79203;BME280;68630;42.748;23.278;2023-09-08T04:03:36;95961.25;;;16.32;65.70
79203;BME280;68630;42.748;23.278;2023-09-08T04:06:03;95962.22;;;16.08;66.51
79203;BME280;68630;42.748;23.278;2023-09-08T04:08:31;95960.64;;;16.02;66.84
79203;BME280;68630;42.748;23.278;2023-09-08T04:10:58;95959.73;;;16.11;66.86
79203;BME280;68630;42.748;23.278;2023-09-08T04:13:26;95953.34;;;16.30;66.53
79203;BME280;68630;42.748;23.278;2023-09-08T04:15:53;95958.98;;;16.45;66.09
79203;BME280;68630;42.748;23.278;2023-09-08T04:18:21;95961.41;;;16.52;65.38
79203;BME280;68630;42.748;23.278;2023-09-08T04:20:48;95957.84;;;16.47;65.65
79203;BME280;68630;42.748;23.278;2023-09-08T04:23:16;95962.68;;;16.66;64.89
79203;BME280;68630;42.748;23.278;2023-09-08T04:25:43;95962.23;;;16.75;64.52
79203;BME280;68630;42.748;23.278;2023-09-08T04:28:11;95965.92;;;16.52;65.19
79203;BME280;68630;42.748;23.278;2023-09-08T04:30:39;95970.81;;;16.74;64.23
79203;BME280;68630;42.748;23.278;2023-09-08T04:33:07;95974.03;;;17.04;61.89
79203;BME280;68630;42.748;23.278;2023-09-08T04:35:33;95970.25;;;17.19;61.45
79203;BME280;68630;42.748;23.278;2023-09-08T04:38:01;95970.66;;;17.36;60.24
79203;BME280;68630;42.748;23.278;2023-09-08T04:40:29;95972.69;;;17.38;60.47
79203;BME280;68630;42.748;23.278;2023-09-08T04:42:56;95983.32;;;17.99;58.93
79203;BME280;68630;42.748;23.278;2023-09-08T04:45:24;95987.41;;;18.61;57.22
79203;BME280;68630;42.748;23.278;2023-09-08T04:47:51;95979.39;;;19.29;54.76
79203;BME280;68630;42.748;23.278;2023-09-08T04:50:19;95975.71;;;20.05;52.41
79203;BME280;68630;42.748;23.278;2023-09-08T04:52:46;95980.09;;;20.94;50.67
79203;BME280;68630;42.748;23.278;2023-09-08T04:55:14;95973.94;;;21.64;48.48
79203;BME280;68630;42.748;23.278;2023-09-08T04:57:41;95976.59;;;22.31;51.03
79203;BME280;68630;42.748;23.278;2023-09-08T05:00:09;95975.77;;;22.91;47.35
79203;BME280;68630;42.748;23.278;2023-09-08T05:02:38;95977.28;;;23.22;45.87
79203;BME280;68630;42.748;23.278;2023-09-08T05:05:05;95973.80;;;23.69;44.93
79203;BME280;68630;42.748;23.278;2023-09-08T05:07:33;95977.59;;;23.92;46.33
79203;BME280;68630;42.748;23.278;2023-09-08T05:10:01;95975.95;;;23.81;46.20
79203;BME280;68630;42.748;23.278;2023-09-08T05:12:28;95978.19;;;22.90;47.29
79203;BME280;68630;42.748;23.278;2023-09-08T05:14:56;95979.03;;;22.69;49.68
79203;BME280;68630;42.748;23.278;2023-09-08T05:17:25;95983.83;;;23.16;49.74
79203;BME280;68630;42.748;23.278;2023-09-08T05:19:53;95989.17;;;23.73;47.93
79203;BME280;68630;42.748;23.278;2023-09-08T05:22:20;95980.45;;;24.39;46.05
79203;BME280;68630;42.748;23.278;2023-09-08T05:24:48;95978.84;;;24.98;44.86
79203;BME280;68630;42.748;23.278;2023-09-08T05:27:15;95978.03;;;25.74;43.05
79203;BME280;68630;42.748;23.278;2023-09-08T05:29:43;95983.33;;;26.75;40.73
79203;BME280;68630;42.748;23.278;2023-09-08T05:32:10;95984.84;;;27.65;39.44
79203;BME280;68630;42.748;23.278;2023-09-08T05:34:38;95983.16;;;28.38;38.46
79203;BME280;68630;42.748;23.278;2023-09-08T05:37:06;95978.55;;;28.60;38.45
79203;BME280;68630;42.748;23.278;2023-09-08T05:39:35;95978.92;;;28.84;38.18
79203;BME280;68630;42.748;23.278;2023-09-08T05:42:02;95975.66;;;28.64;38.82
79203;BME280;68630;42.748;23.278;2023-09-08T05:44:30;95985.27;;;29.53;37.58
79203;BME280;68630;42.748;23.278;2023-09-08T05:46:58;95990.91;;;30.49;36.05
79203;BME280;68630;42.748;23.278;2023-09-08T05:49:25;95986.39;;;30.16;36.00
79203;BME280;68630;42.748;23.278;2023-09-08T05:51:53;95992.23;;;29.70;37.14
79203;BME280;68630;42.748;23.278;2023-09-08T05:54:20;95981.98;;;29.54;37.31
79203;BME280;68630;42.748;23.278;2023-09-08T05:56:48;95987.93;;;29.39;37.37
79203;BME280;68630;42.748;23.278;2023-09-08T05:59:15;95989.66;;;29.54;36.94
79203;BME280;68630;42.748;23.278;2023-09-08T06:01:43;95986.05;;;29.51;36.76
79203;BME280;68630;42.748;23.278;2023-09-08T06:04:10;95992.48;;;30.06;35.64
79203;BME280;68630;42.748;23.278;2023-09-08T06:06:38;95993.72;;;29.28;36.07
79203;BME280;68630;42.748;23.278;2023-09-08T06:09:09;95992.41;;;29.19;35.62
79203;BME280;68630;42.748;23.278;2023-09-08T06:11:35;95996.90;;;29.46;35.90
79203;BME280;68630;42.748;23.278;2023-09-08T06:14:03;95991.15;;;29.47;35.23
79203;BME280;68630;42.748;23.278;2023-09-08T06:16:30;95989.31;;;29.06;36.22
79203;BME280;68630;42.748;23.278;2023-09-08T06:18:58;95994.70;;;28.40;37.35
79203;BME280;68630;42.748;23.278;2023-09-08T06:21:26;95999.39;;;29.14;36.28
79203;BME280;68630;42.748;23.278;2023-09-08T06:23:54;95995.36;;;28.84;36.87
79203;BME280;68630;42.748;23.278;2023-09-08T06:26:21;95992.02;;;28.12;38.49
79203;BME280;68630;42.748;23.278;2023-09-08T06:28:49;95989.95;;;28.66;36.38
79203;BME280;68630;42.748;23.278;2023-09-08T06:31:16;95997.94;;;28.58;36.99
79203;BME280;68630;42.748;23.278;2023-09-08T06:33:44;95997.13;;;29.00;35.96
79203;BME280;68630;42.748;23.278;2023-09-08T06:36:11;96001.70;;;28.97;36.54
79203;BME280;68630;42.748;23.278;2023-09-08T06:38:39;96001.52;;;28.00;37.48
79203;BME280;68630;42.748;23.278;2023-09-08T06:41:10;96008.44;;;27.94;37.65
79203;BME280;68630;42.748;23.278;2023-09-08T06:43:38;96010.53;;;28.29;36.72
79203;BME280;68630;42.748;23.278;2023-09-08T06:46:05;96013.64;;;28.42;35.78
79203;BME280;68630;42.748;23.278;2023-09-08T06:48:34;96011.30;;;28.75;34.99
79203;BME280;68630;42.748;23.278;2023-09-08T06:51:04;96005.06;;;28.68;35.06
79203;BME280;68630;42.748;23.278;2023-09-08T06:53:32;96007.19;;;28.75;34.40
79203;BME280;68630;42.748;23.278;2023-09-08T06:55:59;96013.41;;;28.43;34.92
79203;BME280;68630;42.748;23.278;2023-09-08T06:58:27;96015.36;;;27.27;36.58
79203;BME280;68630;42.748;23.278;2023-09-08T07:00:55;96007.30;;;27.92;35.61
79203;BME280;68630;42.748;23.278;2023-09-08T07:03:22;96008.41;;;27.66;35.90
79203;BME280;68630;42.748;23.278;2023-09-08T07:05:50;96015.80;;;27.24;36.69
79203;BME280;68630;42.748;23.278;2023-09-08T07:08:18;96008.02;;;27.62;36.04
79203;BME280;68630;42.748;23.278;2023-09-08T07:10:51;96016.86;;;28.29;35.15
79203;BME280;68630;42.748;23.278;2023-09-08T07:13:16;96009.02;;;28.72;33.84
79203;BME280;68630;42.748;23.278;2023-09-08T07:15:45;96010.08;;;28.71;34.17
79203;BME280;68630;42.748;23.278;2023-09-08T07:18:12;96008.99;;;29.83;32.83
79203;BME280;68630;42.748;23.278;2023-09-08T07:20:40;96005.28;;;29.54;32.96
79203;BME280;68630;42.748;23.278;2023-09-08T07:23:08;96016.00;;;28.38;34.29
79203;BME280;68630;42.748;23.278;2023-09-08T07:25:37;96017.82;;;28.26;34.04
79203;BME280;68630;42.748;23.278;2023-09-08T07:28:06;96019.34;;;28.31;34.37
79203;BME280;68630;42.748;23.278;2023-09-08T07:30:34;96014.63;;;28.29;34.53
79203;BME280;68630;42.748;23.278;2023-09-08T07:33:02;96017.79;;;28.63;34.30
79203;BME280;68630;42.748;23.278;2023-09-08T07:35:32;96012.50;;;29.12;33.38
79203;BME280;68630;42.748;23.278;2023-09-08T07:38:00;96009.22;;;29.93;31.72
79203;BME280;68630;42.748;23.278;2023-09-08T07:40:29;96007.11;;;30.50;31.40
79203;BME280;68630;42.748;23.278;2023-09-08T07:42:57;96001.97;;;30.97;30.54
79203;BME280;68630;42.748;23.278;2023-09-08T07:45:24;96005.39;;;31.21;30.12
79203;BME280;68630;42.748;23.278;2023-09-08T07:47:53;96005.84;;;31.32;30.08
79203;BME280;68630;42.748;23.278;2023-09-08T07:50:26;96005.91;;;30.89;29.95
79203;BME280;68630;42.748;23.278;2023-09-08T07:52:55;96001.68;;;30.53;30.92
79203;BME280;68630;42.748;23.278;2023-09-08T07:55:24;96000.97;;;31.71;29.43
79203;BME280;68630;42.748;23.278;2023-09-08T07:57:55;95996.80;;;32.29;28.13
79203;BME280;68630;42.748;23.278;2023-09-08T08:00:25;95990.31;;;32.90;27.58
79203;BME280;68630;42.748;23.278;2023-09-08T08:03:00;95989.29;;;32.47;27.53
79203;BME280;68630;42.748;23.278;2023-09-08T08:05:34;95992.11;;;33.36;26.26
79203;BME280;68630;42.748;23.278;2023-09-08T08:08:02;95986.08;;;32.80;25.68
79203;BME280;68630;42.748;23.278;2023-09-08T08:10:36;95989.66;;;32.31;26.52
79203;BME280;68630;42.748;23.278;2023-09-08T08:15:37;95982.03;;;32.60;25.56
79203;BME280;68630;42.748;23.278;2023-09-08T08:18:06;95981.48;;;32.39;25.68
79203;BME280;68630;42.748;23.278;2023-09-08T08:23:12;95987.35;;;30.24;28.51
79203;BME280;68630;42.748;23.278;2023-09-08T08:25:43;95974.22;;;29.86;29.13
79203;BME280;68630;42.748;23.278;2023-09-08T08:28:10;95984.41;;;29.88;29.09
79203;BME280;68630;42.748;23.278;2023-09-08T08:30:38;95982.20;;;28.95;30.59
79203;BME280;68630;42.748;23.278;2023-09-08T08:33:06;95978.94;;;29.76;29.25
79203;BME280;68630;42.748;23.278;2023-09-08T08:35:34;95972.81;;;29.36;30.17
79203;BME280;68630;42.748;23.278;2023-09-08T08:38:01;95975.09;;;28.85;30.20
79203;BME280;68630;42.748;23.278;2023-09-08T08:40:30;95973.58;;;28.38;31.58
79203;BME280;68630;42.748;23.278;2023-09-08T08:45:27;95961.25;;;29.34;29.27
79203;BME280;68630;42.748;23.278;2023-09-08T08:47:57;95960.11;;;29.21;29.86
79203;BME280;68630;42.748;23.278;2023-09-08T08:50:26;95964.77;;;29.94;28.75
79203;BME280;68630;42.748;23.278;2023-09-08T08:52:55;95962.70;;;30.13;28.62
79203;BME280;68630;42.748;23.278;2023-09-08T08:55:24;95962.15;;;29.25;29.58
79203;BME280;68630;42.748;23.278;2023-09-08T08:57:53;95958.03;;;28.41;30.63
79203;BME280;68630;42.748;23.278;2023-09-08T09:00:24;95960.84;;;27.67;32.36
79203;BME280;68630;42.748;23.278;2023-09-08T09:03:03;95949.38;;;27.77;31.55
79203;BME280;68630;42.748;23.278;2023-09-08T09:05:32;95952.44;;;29.11;29.54
79203;BME280;68630;42.748;23.278;2023-09-08T09:08:02;95962.84;;;30.35;28.28
79203;BME280;68630;42.748;23.278;2023-09-08T09:10:31;95958.33;;;28.93;29.59
79203;BME280;68630;42.748;23.278;2023-09-08T09:12:59;95960.78;;;30.85;27.17
79203;BME280;68630;42.748;23.278;2023-09-08T09:15:33;95954.95;;;31.13;26.55
79203;BME280;68630;42.748;23.278;2023-09-08T09:18:07;95953.06;;;31.33;26.40
79203;BME280;68630;42.748;23.278;2023-09-08T09:20:37;95957.43;;;30.66;27.01
79203;BME280;68630;42.748;23.278;2023-09-08T09:23:06;95953.23;;;29.80;28.54
79203;BME280;68630;42.748;23.278;2023-09-08T09:25:35;95961.41;;;28.04;31.41
79203;BME280;68630;42.748;23.278;2023-09-08T09:36:43;95942.07;;;27.08;33.15
79203;BME280;68630;42.748;23.278;2023-09-08T09:39:12;95945.99;;;28.93;30.93
79203;BME280;68630;42.748;23.278;2023-09-08T09:41:40;95946.53;;;29.76;29.00
79203;BME280;68630;42.748;23.278;2023-09-08T09:44:09;95944.92;;;29.27;29.60
79203;BME280;68630;42.748;23.278;2023-09-08T09:46:37;95944.44;;;28.98;30.22
79203;BME280;68630;42.748;23.278;2023-09-08T09:49:05;95940.38;;;28.46;31.05
79203;BME280;68630;42.748;23.278;2023-09-08T09:51:32;95949.34;;;27.05;33.54
79203;BME280;68630;42.748;23.278;2023-09-08T09:54:03;95947.64;;;27.20;33.08
79203;BME280;68630;42.748;23.278;2023-09-08T09:56:31;95950.77;;;26.99;33.43
79203;BME280;68630;42.748;23.278;2023-09-08T09:58:59;95947.25;;;27.42;32.83
79203;BME280;68630;42.748;23.278;2023-09-08T10:01:29;95947.63;;;28.01;32.14
79203;BME280;68630;42.748;23.278;2023-09-08T10:03:58;95947.80;;;28.36;31.25
79203;BME280;68630;42.748;23.278;2023-09-08T10:06:26;95944.02;;;28.80;31.44
79203;BME280;68630;42.748;23.278;2023-09-08T10:08:54;95935.45;;;28.67;31.41
79203;BME280;68630;42.748;23.278;2023-09-08T10:11:23;95934.30;;;28.74;31.28
79203;BME280;68630;42.748;23.278;2023-09-08T10:13:53;95943.44;;;28.89;31.17
79203;BME280;68630;42.748;23.278;2023-09-08T10:16:23;95935.33;;;28.01;32.40
79203;BME280;68630;42.748;23.278;2023-09-08T10:18:52;95929.48;;;27.51;33.24
79203;BME280;68630;42.748;23.278;2023-09-08T10:21:21;95923.27;;;27.09;33.62
79203;BME280;68630;42.748;23.278;2023-09-08T10:24:14;95929.44;;;26.89;34.28
79203;BME280;68630;42.748;23.278;2023-09-08T10:26:25;95925.45;;;27.81;32.94
79203;BME280;68630;42.748;23.278;2023-09-08T10:28:54;95915.37;;;28.21;32.32
79203;BME280;68630;42.748;23.278;2023-09-08T10:31:28;95915.28;;;27.42;33.34
79203;BME280;68630;42.748;23.278;2023-09-08T10:33:57;95921.64;;;26.93;34.46
79203;BME280;68630;42.748;23.278;2023-09-08T10:36:25;95922.62;;;26.57;35.27
79203;BME280;68630;42.748;23.278;2023-09-08T10:38:54;95916.28;;;26.00;36.11
79203;BME280;68630;42.748;23.278;2023-09-08T10:44:02;95906.61;;;25.52;37.09
79203;BME280;68630;42.748;23.278;2023-09-08T10:46:28;95904.98;;;25.89;37.05
79203;BME280;68630;42.748;23.278;2023-09-08T10:49:03;95909.97;;;26.38;36.25
79203;BME280;68630;42.748;23.278;2023-09-08T11:04:38;95899.94;;;26.63;35.42
79203;BME280;68630;42.748;23.278;2023-09-08T11:07:08;95894.26;;;26.65;35.05
79203;BME280;68630;42.748;23.278;2023-09-08T11:09:37;95903.31;;;27.27;34.68
79203;BME280;68630;42.748;23.278;2023-09-08T11:12:06;95897.16;;;27.23;34.34
79203;BME280;68630;42.748;23.278;2023-09-08T11:14:36;95901.00;;;26.71;35.12
79203;BME280;68630;42.748;23.278;2023-09-08T11:22:23;95888.81;;;26.42;36.06
79203;BME280;68630;42.748;23.278;2023-09-08T11:39:09;95870.17;;;26.39;36.05
79203;BME280;68630;42.748;23.278;2023-09-08T11:44:21;95862.57;;;25.93;36.65
79203;BME280;68630;42.748;23.278;2023-09-08T11:49:28;95856.36;;;25.79;36.84
79203;BME280;68630;42.748;23.278;2023-09-08T11:51:55;95852.63;;;25.90;37.69
79203;BME280;68630;42.748;23.278;2023-09-08T12:28:06;95834.78;;;25.55;37.72
79203;BME280;68630;42.748;23.278;2023-09-08T12:38:23;95828.78;;;25.40;37.68
79203;BME280;68630;42.748;23.278;2023-09-08T12:40:59;95838.16;;;25.15;37.96
79203;BME280;68630;42.748;23.278;2023-09-08T12:48:36;95821.88;;;25.31;36.70
79203;BME280;68630;42.748;23.278;2023-09-08T12:51:23;95838.89;;;25.26;37.67
79203;BME280;68630;42.748;23.278;2023-09-08T13:17:14;95820.02;;;25.70;36.51
79203;BME280;68630;42.748;23.278;2023-09-08T13:32:43;95818.17;;;26.43;35.05
79203;BME280;68630;42.748;23.278;2023-09-08T13:43:00;95833.98;;;25.71;37.50
79203;BME280;68630;42.748;23.278;2023-09-08T13:45:49;95815.00;;;25.67;37.61
79203;BME280;68630;42.748;23.278;2023-09-08T14:11:41;95813.55;;;25.48;38.14
79203;BME280;68630;42.748;23.278;2023-09-08T14:27:13;95814.80;;;25.16;37.34
79203;BME280;68630;42.748;23.278;2023-09-08T14:37:30;95801.84;;;24.98;38.21
79203;BME280;68630;42.748;23.278;2023-09-08T14:40:11;95811.92;;;24.91;38.37
79203;BME280;68630;42.748;23.278;2023-09-08T14:42:34;95803.48;;;24.83;38.15
79203;BME280;68630;42.748;23.278;2023-09-08T14:45:20;95803.55;;;24.93;38.65
79203;BME280;68630;42.748;23.278;2023-09-08T14:47:49;95810.66;;;25.00;38.20
79203;BME280;68630;42.748;23.278;2023-09-08T14:52:56;95805.02;;;24.95;38.84
79203;BME280;68630;42.748;23.278;2023-09-08T15:00:35;95803.47;;;24.90;38.25
79203;BME280;68630;42.748;23.278;2023-09-08T15:03:07;95787.38;;;24.75;39.13
79203;BME280;68630;42.748;23.278;2023-09-08T15:08:07;95791.66;;;24.80;38.88
79203;BME280;68630;42.748;23.278;2023-09-08T15:10:36;95804.53;;;24.76;38.78
79203;BME280;68630;42.748;23.278;2023-09-08T15:13:07;95788.93;;;24.80;38.98
79203;BME280;68630;42.748;23.278;2023-09-08T15:15:38;95797.23;;;24.70;39.56
79203;BME280;68630;42.748;23.278;2023-09-08T15:20:54;95793.95;;;24.83;38.42
79203;BME280;68630;42.748;23.278;2023-09-08T15:28:34;95804.45;;;24.66;38.91
79203;BME280;68630;42.748;23.278;2023-09-08T15:55:57;95795.58;;;24.35;39.50
79203;BME280;68630;42.748;23.278;2023-09-08T16:03:48;95781.64;;;24.14;40.19
79203;BME280;68630;42.748;23.278;2023-09-08T16:06:18;95790.34;;;24.14;40.26
79203;BME280;68630;42.748;23.278;2023-09-08T16:08:51;95783.01;;;24.14;40.29
79203;BME280;68630;42.748;23.278;2023-09-08T16:11:26;95788.16;;;24.13;40.45
79203;BME280;68630;42.748;23.278;2023-09-08T16:16:42;95780.61;;;24.08;40.60
79203;BME280;68630;42.748;23.278;2023-09-08T16:19:01;95785.63;;;24.05;40.67
79203;BME280;68630;42.748;23.278;2023-09-08T16:21:35;95781.34;;;24.00;40.71
79203;BME280;68630;42.748;23.278;2023-09-08T16:26:39;95781.45;;;23.89;40.85
79203;BME280;68630;42.748;23.278;2023-09-08T16:29:23;95775.67;;;23.81;41.20
79203;BME280;68630;42.748;23.278;2023-09-08T16:32:04;95779.82;;;23.70;41.60
79203;BME280;68630;42.748;23.278;2023-09-08T16:34:47;95770.28;;;23.57;41.88
79203;BME280;68630;42.748;23.278;2023-09-08T16:37:20;95773.89;;;23.40;42.28
79203;BME280;68630;42.748;23.278;2023-09-08T16:39:51;95777.21;;;23.35;42.18
79203;BME280;68630;42.748;23.278;2023-09-08T16:42:28;95778.80;;;23.34;41.84
79203;BME280;68630;42.748;23.278;2023-09-08T16:45:07;95786.84;;;23.38;42.10
79203;BME280;68630;42.748;23.278;2023-09-08T16:47:47;95783.77;;;23.30;42.28
79203;BME280;68630;42.748;23.278;2023-09-08T16:50:24;95782.06;;;23.16;42.69
79203;BME280;68630;42.748;23.278;2023-09-08T17:01:06;95787.63;;;22.84;43.79
79203;BME280;68630;42.748;23.278;2023-09-08T17:03:44;95787.25;;;22.69;44.06
79203;BME280;68630;42.748;23.278;2023-09-08T17:06:21;95787.30;;;22.65;44.22
79203;BME280;68630;42.748;23.278;2023-09-08T17:08:57;95787.69;;;22.55;44.38
79203;BME280;68630;42.748;23.278;2023-09-08T17:11:31;95796.61;;;22.49;44.80
79203;BME280;68630;42.748;23.278;2023-09-08T17:13:59;95798.83;;;22.39;44.84
79203;BME280;68630;42.748;23.278;2023-09-08T17:19:05;95804.34;;;22.35;45.01
79203;BME280;68630;42.748;23.278;2023-09-08T17:21:40;95809.19;;;22.29;45.44